WADD/DPS METAR and TAF weather

Enter ICAO airport designator
Station Type Date Time Source
WADD METAR 2021/09/25 11:30 UTC NOAA

WADD 251130Z 11008KT 9999 FEW017 27/25 Q1010 NOSIG


Station Type Date Time Source
WADD Decoded METAR 2021/09/25 11:30 UTC NOAA

Station name not available
Sep 25, 2021 - 07:30 AM EDT / 2021.09.25 1130 UTC
Wind: from the ESE (110 degrees) at 9 MPH (8 KT):0
Visibility: greater than 7 mile(s):0
Sky conditions: mostly clear
Temperature: 80 F (27 C)
Dew Point: 77 F (25 C)
Relative Humidity: 88%
Pressure (altimeter): 29.83 in. Hg (1010 hPa)
ob: WADD 251130Z 11008KT 9999 FEW017 27/25 Q1010 NOSIG
cycle: 11

Station Type Date Time Source
WADD TAF 2021/09/25 12:09 UTC NOAA

TAF WADD 251100Z 2512/2612 11010KT 8000 SCT016
TEMPO 2512/2516 BKN014

Example: see airport list